createdAt,value
2023-05-15T00:02:11.653Z,15.00
2023-05-15T00:04:39.001Z,13.20
2023-05-15T00:07:06.000Z,12.30
2023-05-15T00:09:32.995Z,14.10
2023-05-15T00:12:00.450Z,18.70
2023-05-15T00:14:27.250Z,13.60
2023-05-15T00:16:54.084Z,12.50
2023-05-15T00:19:20.976Z,17.00
2023-05-15T00:21:47.907Z,11.50
2023-05-15T00:24:14.840Z,15.60
2023-05-15T00:26:41.842Z,14.60
2023-05-15T00:29:09.785Z,14.70
2023-05-15T00:31:36.832Z,13.90
2023-05-15T00:34:03.767Z,11.60
2023-05-15T00:36:30.982Z,11.20
2023-05-15T00:38:58.034Z,13.00
2023-05-15T00:41:25.205Z,11.60
2023-05-15T00:43:52.399Z,12.90
2023-05-15T00:46:20.191Z,10.20
2023-05-15T00:48:47.172Z,25.20
2023-05-15T00:51:14.124Z,16.50
2023-05-15T00:53:40.970Z,12.30
2023-05-15T00:56:08.014Z,9.50
2023-05-15T00:58:34.996Z,8.90
2023-05-15T01:01:01.984Z,8.90
2023-05-15T01:03:29.196Z,9.60
2023-05-15T01:05:56.116Z,14.00
2023-05-15T01:08:28.182Z,13.60
2023-05-15T01:10:55.001Z,8.70
2023-05-15T01:13:22.662Z,10.70
2023-05-15T01:15:49.986Z,12.10
2023-05-15T01:18:17.192Z,8.50
2023-05-15T01:20:55.801Z,10.10
2023-05-15T01:23:51.090Z,12.30
2023-05-15T01:31:42.436Z,8.60
2023-05-15T01:34:10.202Z,10.30
2023-05-15T01:36:44.323Z,11.00
2023-05-15T01:39:11.262Z,8.80
2023-05-15T01:42:07.817Z,10.00
2023-05-15T01:44:37.069Z,11.10
2023-05-15T01:47:10.455Z,10.00
2023-05-15T01:49:37.825Z,13.70
2023-05-15T01:52:20.756Z,10.20
2023-05-15T01:54:47.692Z,8.70
2023-05-15T01:57:14.641Z,8.30
2023-05-15T01:59:42.524Z,13.10
2023-05-15T02:02:09.524Z,8.50
2023-05-15T02:04:37.549Z,9.40
2023-05-15T02:07:05.128Z,9.80
2023-05-15T02:09:32.320Z,8.90
2023-05-15T02:12:01.389Z,10.10
2023-05-15T02:14:31.668Z,10.50
2023-05-15T02:16:58.653Z,9.70
2023-05-15T02:19:27.538Z,10.90
2023-05-15T02:21:54.692Z,11.20
2023-05-15T02:24:21.652Z,12.80
2023-05-15T02:27:05.309Z,10.20
2023-05-15T02:30:03.664Z,9.50
2023-05-15T02:32:58.776Z,8.80
2023-05-15T02:35:39.415Z,9.00
2023-05-15T02:38:09.338Z,9.50
2023-05-15T02:40:36.838Z,10.20
2023-05-15T02:43:05.985Z,11.40
2023-05-15T02:45:32.896Z,6.70
2023-05-15T02:47:59.836Z,8.10
2023-05-15T02:50:26.944Z,8.00
2023-05-15T02:53:05.354Z,9.30
2023-05-15T02:55:32.321Z,8.30
2023-05-15T02:57:59.282Z,10.50
2023-05-15T03:00:26.412Z,7.60
2023-05-15T03:02:53.479Z,10.50
2023-05-15T03:05:21.008Z,9.70
2023-05-15T03:07:48.085Z,8.20
2023-05-15T03:10:15.035Z,8.60
2023-05-15T03:12:41.945Z,8.20
2023-05-15T03:15:09.452Z,10.60
2023-05-15T03:17:36.464Z,12.80
2023-05-15T03:20:05.259Z,12.60
2023-05-15T03:22:32.386Z,9.90
2023-05-15T03:24:59.284Z,12.90
2023-05-15T03:27:26.664Z,11.60
2023-05-15T03:29:53.610Z,11.90
2023-05-15T03:32:21.071Z,10.70
2023-05-15T03:34:48.029Z,10.40
2023-05-15T03:37:14.905Z,6.90
2023-05-15T03:39:41.933Z,13.90
2023-05-15T03:42:08.880Z,18.40
2023-05-15T03:44:35.785Z,14.80
2023-05-15T03:47:02.719Z,12.00
2023-05-15T03:49:29.730Z,14.10
2023-05-15T03:51:57.929Z,16.00
2023-05-15T03:54:24.874Z,13.50
2023-05-15T03:56:53.090Z,10.60
2023-05-15T03:59:19.989Z,14.00
2023-05-15T04:02:02.922Z,10.90
2023-05-15T04:04:31.105Z,9.60
2023-05-15T04:06:57.989Z,12.80
2023-05-15T04:09:24.901Z,12.60
2023-05-15T04:11:51.846Z,8.80
2023-05-15T04:14:18.807Z,14.10
2023-05-15T04:16:45.887Z,10.80
2023-05-15T04:19:12.974Z,10.00
2023-05-15T04:21:39.970Z,10.40
2023-05-15T04:24:07.657Z,18.70
2023-05-15T04:26:34.738Z,15.90
2023-05-15T04:29:04.299Z,11.80
2023-05-15T04:31:31.983Z,14.80
2023-05-15T04:33:58.942Z,13.50
2023-05-15T04:36:25.796Z,10.90
2023-05-15T04:38:52.781Z,9.10
2023-05-15T04:41:19.662Z,31.00
2023-05-15T04:43:46.852Z,25.90
2023-05-15T04:46:13.793Z,25.30
2023-05-15T04:48:40.823Z,14.70
2023-05-15T04:51:08.008Z,18.90
2023-05-15T04:53:34.888Z,36.90
2023-05-15T04:56:01.787Z,15.60
2023-05-15T04:58:28.666Z,24.50
2023-05-15T05:00:55.633Z,14.00
2023-05-15T05:03:23.118Z,20.30
2023-05-15T05:05:50.131Z,23.50
2023-05-15T05:08:17.154Z,18.20
2023-05-15T05:10:44.208Z,13.30
2023-05-15T05:13:11.093Z,21.30
2023-05-15T05:15:38.277Z,14.20
2023-05-15T05:18:06.263Z,13.80
2023-05-15T05:20:33.235Z,21.40
2023-05-15T05:23:00.225Z,23.20
2023-05-15T05:25:27.229Z,18.70
2023-05-15T05:27:54.158Z,21.20
2023-05-15T05:30:22.481Z,21.60
2023-05-15T05:32:49.595Z,24.80
2023-05-15T05:35:16.598Z,15.80
2023-05-15T05:37:43.513Z,18.00
2023-05-15T05:40:11.036Z,18.20
2023-05-15T05:42:38.070Z,16.70
2023-05-15T05:45:06.782Z,16.70
2023-05-15T05:47:34.240Z,33.90
2023-05-15T05:50:01.148Z,12.40
2023-05-15T05:52:29.174Z,7.90
2023-05-15T05:54:56.124Z,12.70
2023-05-15T05:57:23.040Z,11.80
2023-05-15T05:59:50.087Z,12.40
2023-05-15T06:02:17.097Z,9.10
2023-05-15T06:04:44.197Z,11.00
2023-05-15T06:07:11.293Z,20.10
2023-05-15T06:09:38.177Z,10.60
2023-05-15T06:12:05.776Z,10.80
2023-05-15T06:14:32.760Z,8.30
2023-05-15T06:17:01.226Z,10.20
2023-05-15T06:19:29.271Z,6.20
2023-05-15T06:21:56.155Z,9.50
2023-05-15T06:24:23.248Z,9.50
2023-05-15T06:26:50.637Z,8.60
2023-05-15T06:29:19.343Z,6.80
2023-05-15T06:31:46.182Z,12.70
2023-05-15T06:34:13.156Z,6.20
2023-05-15T06:36:40.718Z,10.40
2023-05-15T06:39:10.825Z,10.60
2023-05-15T06:41:38.214Z,8.10
2023-05-15T06:44:05.217Z,8.40
2023-05-15T06:46:32.147Z,11.10
2023-05-15T06:48:59.064Z,5.90
2023-05-15T06:51:25.958Z,10.40
2023-05-15T06:53:52.871Z,9.00
2023-05-15T06:56:19.737Z,6.80
2023-05-15T06:58:46.578Z,8.60
2023-05-15T07:01:14.010Z,5.90
2023-05-15T07:03:43.109Z,9.10
2023-05-15T07:06:09.986Z,6.20
2023-05-15T07:08:36.936Z,12.00
2023-05-15T07:11:04.216Z,9.50
2023-05-15T07:13:31.106Z,7.50
2023-05-15T07:15:58.099Z,10.60
2023-05-15T07:18:24.940Z,11.60
2023-05-15T07:20:51.831Z,7.90
2023-05-15T07:23:18.726Z,14.80
2023-05-15T07:25:46.202Z,7.10
2023-05-15T07:28:13.201Z,11.00
2023-05-15T07:30:40.079Z,9.50
2023-05-15T07:33:07.142Z,8.90
2023-05-15T07:35:34.192Z,8.50
2023-05-15T07:38:01.545Z,12.50
2023-05-15T07:40:28.513Z,8.30
2023-05-15T07:42:55.391Z,6.90
2023-05-15T07:45:22.551Z,8.50
2023-05-15T07:47:49.794Z,6.00
2023-05-15T07:50:16.824Z,10.70
2023-05-15T07:52:44.205Z,4.00
2023-05-15T07:55:11.293Z,6.80
2023-05-15T07:57:38.429Z,5.70
2023-05-15T08:00:11.073Z,6.50
2023-05-15T08:02:41.821Z,4.10
2023-05-15T08:05:08.902Z,8.70
2023-05-15T08:07:36.153Z,7.50
2023-05-15T08:10:06.415Z,5.20
2023-05-15T08:12:33.528Z,6.90
2023-05-15T08:15:00.397Z,6.10
2023-05-15T08:17:27.283Z,7.70
2023-05-15T08:19:54.360Z,5.80
2023-05-15T08:22:21.304Z,6.60
2023-05-15T08:24:48.795Z,3.60
2023-05-15T08:27:15.600Z,8.10
2023-05-15T08:29:42.479Z,11.90
2023-05-15T08:32:09.600Z,6.60
2023-05-15T08:34:36.481Z,5.30
2023-05-15T08:37:04.378Z,6.80
2023-05-15T08:39:31.290Z,7.80
2023-05-15T08:42:11.520Z,9.40
2023-05-15T08:44:39.371Z,4.60
2023-05-15T08:47:06.577Z,5.00
2023-05-15T08:49:42.286Z,3.80
2023-05-15T08:52:09.335Z,3.30
2023-05-15T08:54:36.219Z,4.60
2023-05-15T08:57:03.161Z,3.50
2023-05-15T08:59:30.030Z,7.40
2023-05-15T09:01:57.338Z,7.10
2023-05-15T09:04:24.341Z,9.00
2023-05-15T09:06:51.323Z,6.50
2023-05-15T09:09:18.755Z,5.80
2023-05-15T09:11:46.535Z,5.00
2023-05-15T09:14:13.433Z,9.70
2023-05-15T09:16:40.370Z,5.40
2023-05-15T09:19:07.371Z,4.30
2023-05-15T09:21:34.463Z,5.50
2023-05-15T09:24:18.163Z,6.80
2023-05-15T09:26:46.166Z,8.40
2023-05-15T09:29:18.071Z,7.50
2023-05-15T09:31:48.769Z,11.30
2023-05-15T09:34:15.787Z,6.90
2023-05-15T09:36:45.071Z,5.60
2023-05-15T09:39:12.193Z,3.60
2023-05-15T09:41:41.931Z,5.10
2023-05-15T09:44:20.651Z,6.60
2023-05-15T09:46:48.678Z,4.40
2023-05-15T09:49:15.722Z,8.00
2023-05-15T09:51:44.502Z,5.40
2023-05-15T09:54:16.095Z,4.80
2023-05-15T09:56:47.337Z,6.00
2023-05-15T09:59:15.851Z,3.00
2023-05-15T10:01:46.177Z,7.30
2023-05-15T10:04:14.104Z,11.50
2023-05-15T10:06:43.363Z,7.00
2023-05-15T10:09:11.181Z,4.60
2023-05-15T10:11:39.351Z,5.20
2023-05-15T10:14:07.257Z,7.70
2023-05-15T10:16:36.068Z,8.20
2023-05-15T10:19:05.320Z,9.70
2023-05-15T10:21:33.875Z,3.10
2023-05-15T10:24:01.292Z,5.70
2023-05-15T10:26:39.687Z,6.40
2023-05-15T10:29:08.743Z,5.20
2023-05-15T10:31:36.727Z,8.80
2023-05-15T10:34:07.327Z,5.20
2023-05-15T10:36:35.010Z,5.30
2023-05-15T10:39:03.222Z,5.90
2023-05-15T10:41:30.919Z,10.80
2023-05-15T10:43:59.319Z,6.20
2023-05-15T10:46:27.107Z,6.70
2023-05-15T10:48:54.501Z,9.00
2023-05-15T10:51:27.588Z,3.80
2023-05-15T10:53:55.467Z,5.10
2023-05-15T10:56:37.805Z,6.80
2023-05-15T10:59:09.527Z,4.00
2023-05-15T11:01:37.928Z,5.80
2023-05-15T11:04:08.208Z,5.00
2023-05-15T11:06:35.844Z,9.20
2023-05-15T11:09:21.930Z,5.40
2023-05-15T11:11:52.052Z,5.00
2023-05-15T11:14:19.739Z,5.10
2023-05-15T11:16:52.784Z,6.30
2023-05-15T11:19:22.768Z,5.30
2023-05-15T11:22:06.216Z,8.80
2023-05-15T11:24:46.844Z,5.90
2023-05-15T11:27:16.799Z,7.50
2023-05-15T11:30:16.074Z,5.70
2023-05-15T11:32:52.755Z,3.50
2023-05-15T11:35:22.806Z,5.20
2023-05-15T11:37:51.464Z,5.70
2023-05-15T11:40:31.976Z,4.60
2023-05-15T11:43:08.780Z,4.00
2023-05-15T11:45:37.973Z,22.20
2023-05-15T11:48:08.736Z,8.90
2023-05-15T11:50:35.944Z,7.50
2023-05-15T11:53:06.555Z,9.10
2023-05-15T11:55:34.461Z,7.60
2023-05-15T11:58:01.828Z,4.70
2023-05-15T12:00:28.869Z,22.20
2023-05-15T12:02:56.362Z,9.60
2023-05-15T12:05:23.700Z,13.40
2023-05-15T12:07:50.658Z,9.60
2023-05-15T12:10:17.570Z,7.60
2023-05-15T12:12:46.064Z,5.70
2023-05-15T12:15:13.743Z,5.60
2023-05-15T12:17:41.158Z,8.00
2023-05-15T12:20:10.947Z,4.80
2023-05-15T12:22:42.638Z,6.80
2023-05-15T12:25:11.479Z,7.40
2023-05-15T12:27:39.359Z,10.70
2023-05-15T12:30:07.140Z,9.40
2023-05-15T12:32:35.158Z,5.00
2023-05-15T12:35:03.057Z,9.90
2023-05-15T12:37:35.977Z,6.50
2023-05-15T12:40:12.229Z,4.20
2023-05-15T12:42:42.849Z,4.80
2023-05-15T12:45:16.869Z,11.20
2023-05-15T12:47:44.874Z,7.80
2023-05-15T12:50:22.061Z,14.20
2023-05-15T12:52:53.449Z,5.00
2023-05-15T12:55:27.656Z,4.50
2023-05-15T12:57:58.063Z,4.30
2023-05-15T13:00:25.286Z,5.50
2023-05-15T13:02:53.591Z,3.90
2023-05-15T13:05:22.730Z,17.90
2023-05-15T13:07:49.559Z,6.00
2023-05-15T13:10:16.576Z,9.00
2023-05-15T13:12:45.477Z,13.10
2023-05-15T13:15:51.224Z,5.70
2023-05-15T13:18:18.639Z,7.70
2023-05-15T13:20:50.321Z,4.70
2023-05-15T13:23:21.307Z,7.10
2023-05-15T13:25:48.160Z,3.80
2023-05-15T13:28:15.474Z,10.20
2023-05-15T13:30:42.835Z,4.70
2023-05-15T13:33:10.882Z,6.50
2023-05-15T13:35:38.273Z,14.90
2023-05-15T13:38:05.118Z,8.60
2023-05-15T13:40:37.902Z,5.80
2023-05-15T13:43:07.003Z,6.70
2023-05-15T13:45:34.050Z,5.90
2023-05-15T13:48:01.094Z,8.70
2023-05-15T13:50:28.201Z,12.10
2023-05-15T13:52:56.035Z,5.40
2023-05-15T13:55:23.499Z,9.60
2023-05-15T13:57:51.654Z,6.00
2023-05-15T14:00:19.896Z,3.00
2023-05-15T14:02:46.928Z,3.10
2023-05-15T14:05:14.696Z,6.00
2023-05-15T14:07:41.668Z,6.90
2023-05-15T14:10:10.082Z,9.00
2023-05-15T14:12:37.745Z,6.80
2023-05-15T14:15:05.281Z,13.10
2023-05-15T14:17:32.264Z,6.30
2023-05-15T14:19:59.220Z,6.40
2023-05-15T14:22:26.093Z,8.10
2023-05-15T14:24:53.246Z,5.00
2023-05-15T14:27:20.456Z,3.50
2023-05-15T14:29:49.441Z,3.00
2023-05-15T14:32:17.013Z,3.50
2023-05-15T14:34:44.397Z,3.70
2023-05-15T14:37:11.502Z,10.70
2023-05-15T14:39:38.400Z,3.60
2023-05-15T14:42:06.483Z,9.10
2023-05-15T14:44:36.325Z,6.80
2023-05-15T14:47:12.923Z,3.80
2023-05-15T14:49:40.046Z,7.20
2023-05-15T14:52:09.301Z,7.80
2023-05-15T14:54:36.373Z,3.70
2023-05-15T14:57:03.969Z,4.80
2023-05-15T14:59:30.994Z,3.70
2023-05-15T15:01:58.204Z,5.10
2023-05-15T15:04:26.839Z,4.40
2023-05-15T15:06:57.041Z,5.80
2023-05-15T15:09:25.231Z,4.20
2023-05-15T15:11:52.880Z,3.20
2023-05-15T15:14:19.699Z,4.60
2023-05-15T15:16:46.856Z,6.60
2023-05-15T15:19:15.118Z,2.60
2023-05-15T15:21:43.544Z,16.50
2023-05-15T15:24:10.595Z,2.30
2023-05-15T15:26:37.667Z,3.80
2023-05-15T15:29:04.507Z,3.20
2023-05-15T15:31:31.877Z,3.80
2023-05-15T15:33:59.035Z,3.60
2023-05-15T15:36:25.993Z,6.20
2023-05-15T15:38:52.836Z,8.00
2023-05-15T15:41:21.761Z,9.50
2023-05-15T15:43:48.741Z,3.70
2023-05-15T15:46:15.772Z,3.70
2023-05-15T15:48:42.680Z,6.20
2023-05-15T15:51:09.520Z,2.80
2023-05-15T15:53:36.363Z,5.30
2023-05-15T15:56:03.258Z,7.60
2023-05-15T15:58:30.206Z,7.70
2023-05-15T16:00:57.908Z,5.80
2023-05-15T16:03:25.190Z,4.10
2023-05-15T16:05:52.060Z,4.90
2023-05-15T16:08:19.004Z,4.40
2023-05-15T16:10:45.937Z,5.60
2023-05-15T16:13:13.302Z,4.10
2023-05-15T16:15:40.775Z,3.40
2023-05-15T16:18:07.860Z,4.80
2023-05-15T16:20:35.409Z,5.20
2023-05-15T16:23:02.509Z,4.70
2023-05-15T16:25:29.432Z,4.80
2023-05-15T16:27:56.301Z,6.80
2023-05-15T16:30:28.237Z,13.80
2023-05-15T16:33:01.536Z,15.70
2023-05-15T16:35:28.567Z,9.80
2023-05-15T16:37:55.532Z,4.50
2023-05-15T16:40:22.419Z,6.40
2023-05-15T16:42:49.423Z,14.40
2023-05-15T16:45:16.588Z,5.20
2023-05-15T16:47:43.572Z,5.10
2023-05-15T16:50:10.879Z,6.30
2023-05-15T16:52:39.171Z,9.50
2023-05-15T16:55:06.929Z,3.60
2023-05-15T16:57:33.714Z,4.20
2023-05-15T17:00:00.629Z,7.80
2023-05-15T17:02:27.633Z,4.00
2023-05-15T17:04:55.352Z,6.10
2023-05-15T17:07:22.221Z,5.20
2023-05-15T17:09:49.353Z,6.20
2023-05-15T17:12:16.270Z,7.10
2023-05-15T17:14:43.476Z,5.30
2023-05-15T17:17:10.615Z,4.60
2023-05-15T17:19:37.512Z,4.30
2023-05-15T17:22:04.530Z,8.40
2023-05-15T17:24:42.622Z,6.00
2023-05-15T17:27:18.444Z,9.70
2023-05-15T17:29:46.133Z,7.10
2023-05-15T17:32:13.621Z,3.60
2023-05-15T17:34:40.771Z,5.30
2023-05-15T17:37:08.149Z,8.60
2023-05-15T17:39:35.715Z,6.40
2023-05-15T17:42:03.469Z,6.30
2023-05-15T17:44:31.295Z,7.10
2023-05-15T17:46:58.796Z,9.00
2023-05-15T17:49:26.520Z,13.80
2023-05-15T17:51:53.860Z,8.50
2023-05-15T17:54:20.900Z,7.50
2023-05-15T17:56:48.207Z,8.10
2023-05-15T17:59:15.765Z,7.90
2023-05-15T18:01:42.737Z,10.90
2023-05-15T18:04:10.097Z,5.70
2023-05-15T18:06:37.289Z,6.10
2023-05-15T18:09:04.951Z,5.50
2023-05-15T18:11:32.021Z,10.60
2023-05-15T18:13:58.894Z,6.50
2023-05-15T18:16:25.967Z,8.60
2023-05-15T18:18:53.128Z,8.10
2023-05-15T18:21:20.210Z,7.90
2023-05-15T18:23:47.369Z,11.30
2023-05-15T18:26:14.433Z,5.70
2023-05-15T18:28:41.302Z,6.00
2023-05-15T18:31:08.310Z,6.80
2023-05-15T18:33:35.378Z,9.10
2023-05-15T18:36:02.491Z,6.60
2023-05-15T18:38:30.204Z,7.20
2023-05-15T18:40:57.052Z,9.50
2023-05-15T18:43:23.856Z,4.70
2023-05-15T18:45:50.749Z,5.20
2023-05-15T18:48:17.622Z,7.40
2023-05-15T18:50:44.654Z,4.80
2023-05-15T18:53:11.477Z,4.70
2023-05-15T18:55:39.488Z,9.10
2023-05-15T18:58:06.428Z,6.70
2023-05-15T19:00:38.730Z,5.40
2023-05-15T19:03:07.038Z,8.10
2023-05-15T19:05:34.377Z,5.00
2023-05-15T19:08:02.123Z,3.50
2023-05-15T19:10:29.837Z,2.70
2023-05-15T19:12:57.555Z,4.10
2023-05-15T19:15:24.962Z,5.20
2023-05-15T19:17:52.344Z,6.00
2023-05-15T19:20:19.653Z,5.10
2023-05-15T19:22:46.682Z,6.90
2023-05-15T19:25:13.599Z,3.80
2023-05-15T19:27:40.604Z,3.70
2023-05-15T19:30:09.525Z,11.70
2023-05-15T19:32:37.048Z,6.20
2023-05-15T19:35:04.735Z,6.50
2023-05-15T19:37:31.669Z,7.10
2023-05-15T19:39:58.650Z,3.60
2023-05-15T19:42:26.484Z,6.00
2023-05-15T19:44:53.450Z,3.90
2023-05-15T19:47:20.799Z,5.90
2023-05-15T19:49:47.625Z,6.40
2023-05-15T19:52:15.914Z,3.60
2023-05-15T19:54:42.908Z,12.90
2023-05-15T19:57:09.846Z,7.50
2023-05-15T19:59:36.793Z,7.10
2023-05-15T20:02:05.344Z,6.40
2023-05-15T20:04:34.005Z,8.40
2023-05-15T20:07:00.909Z,3.20
2023-05-15T20:09:27.744Z,3.40
2023-05-15T20:11:54.818Z,4.80
2023-05-15T20:14:21.868Z,7.50
2023-05-15T20:16:49.068Z,5.00
2023-05-15T20:19:17.143Z,4.40
2023-05-15T20:21:44.203Z,9.70
2023-05-15T20:24:12.242Z,5.10
2023-05-15T20:26:39.184Z,4.00
2023-05-15T20:29:06.005Z,4.00
2023-05-15T20:31:33.785Z,6.20
2023-05-15T20:34:01.108Z,6.00
2023-05-15T20:36:28.438Z,6.30
2023-05-15T20:38:56.025Z,5.40
2023-05-15T20:41:23.285Z,5.90
2023-05-15T20:43:50.507Z,7.90
2023-05-15T20:46:17.585Z,11.50
2023-05-15T20:48:44.701Z,4.00
2023-05-15T20:51:11.615Z,2.40
2023-05-15T20:53:38.494Z,2.60
2023-05-15T20:56:05.549Z,6.40
2023-05-15T20:58:32.454Z,3.10
2023-05-15T21:01:01.348Z,4.20
2023-05-15T21:03:29.059Z,9.50
2023-05-15T21:05:57.469Z,5.60
2023-05-15T21:08:24.701Z,4.00
2023-05-15T21:10:53.417Z,4.70
2023-05-15T21:13:20.408Z,2.90
2023-05-15T21:15:47.276Z,7.50
2023-05-15T21:18:14.219Z,6.70
2023-05-15T21:20:41.911Z,3.70
2023-05-15T21:23:08.933Z,6.20
2023-05-15T21:25:37.005Z,6.40
2023-05-15T21:28:04.288Z,6.50
2023-05-15T21:30:31.766Z,4.70
2023-05-15T21:32:59.208Z,3.40
2023-05-15T21:35:29.130Z,5.10
2023-05-15T21:37:56.041Z,6.10
2023-05-15T21:40:22.903Z,4.60
2023-05-15T21:42:49.951Z,4.90
2023-05-15T21:45:17.593Z,3.60
2023-05-15T21:47:44.614Z,5.60
2023-05-15T21:50:11.803Z,2.70
2023-05-15T21:52:38.704Z,4.40
2023-05-15T21:55:06.337Z,4.10
2023-05-15T21:57:33.169Z,5.50
2023-05-15T22:00:00.219Z,4.80
2023-05-15T22:02:27.117Z,5.90
2023-05-15T22:04:53.977Z,4.30
2023-05-15T22:07:20.832Z,5.40
2023-05-15T22:09:47.663Z,6.50
2023-05-15T22:12:14.522Z,4.30
2023-05-15T22:14:54.564Z,3.90
2023-05-15T22:17:27.349Z,3.40
2023-05-15T22:19:54.360Z,3.10
2023-05-15T22:22:21.519Z,4.60
2023-05-15T22:24:48.694Z,4.30
2023-05-15T22:27:16.892Z,3.20
2023-05-15T22:29:43.844Z,3.20
2023-05-15T22:32:10.807Z,6.30
2023-05-15T22:34:37.721Z,2.30
2023-05-15T22:37:05.033Z,4.40
2023-05-15T22:39:33.233Z,6.50
2023-05-15T22:42:00.137Z,5.00
2023-05-15T22:44:28.622Z,4.90
2023-05-15T22:46:55.583Z,3.60
2023-05-15T22:49:25.888Z,4.20
2023-05-15T22:51:57.485Z,3.60
2023-05-15T22:54:24.375Z,4.70
2023-05-15T22:56:52.457Z,2.50
2023-05-15T22:59:19.808Z,5.40
2023-05-15T23:01:46.922Z,6.20
2023-05-15T23:04:14.241Z,4.30
2023-05-15T23:06:41.439Z,5.50
2023-05-15T23:09:08.683Z,6.30
2023-05-15T23:11:35.630Z,3.90
2023-05-15T23:14:03.101Z,5.50
2023-05-15T23:16:31.061Z,5.70
2023-05-15T23:18:58.260Z,3.50
2023-05-15T23:21:25.498Z,6.00
2023-05-15T23:23:52.383Z,4.70
2023-05-15T23:26:19.353Z,4.00
2023-05-15T23:28:46.305Z,5.60
2023-05-15T23:31:14.288Z,3.90
2023-05-15T23:33:41.450Z,6.40
2023-05-15T23:36:08.996Z,7.90
2023-05-15T23:38:35.970Z,6.20
2023-05-15T23:41:02.882Z,5.20
2023-05-15T23:43:30.045Z,3.50
2023-05-15T23:45:56.861Z,9.10
2023-05-15T23:48:23.840Z,3.40
2023-05-15T23:50:52.534Z,5.20
2023-05-15T23:53:19.588Z,5.50
2023-05-15T23:55:46.551Z,3.00
2023-05-15T23:58:13.406Z,5.70
